sensor_id;sensor_type;location;lat;lon;timestamp;temperature;humidity
24436;DHT22;12616;52.470;13.436;2022-10-16T00:00:31;14.70;99.90
24436;DHT22;12616;52.470;13.436;2022-10-16T00:02:58;14.70;99.90
24436;DHT22;12616;52.470;13.436;2022-10-16T00:05:24;14.80;99.90
24436;DHT22;12616;52.470;13.436;2022-10-16T00:07:51;14.80;99.90
24436;DHT22;12616;52.470;13.436;2022-10-16T00:10:18;14.80;99.90
24436;DHT22;12616;52.470;13.436;2022-10-16T00:12:44;14.90;99.90
24436;DHT22;12616;52.470;13.436;2022-10-16T00:15:11;14.80;99.90
24436;DHT22;12616;52.470;13.436;2022-10-16T00:17:39;15.00;99.90
24436;DHT22;12616;52.470;13.436;2022-10-16T00:20:07;14.90;99.90
24436;DHT22;12616;52.470;13.436;2022-10-16T00:22:34;14.90;99.90
24436;DHT22;12616;52.470;13.436;2022-10-16T00:25:00;15.00;99.90
24436;DHT22;12616;52.470;13.436;2022-10-16T00:27:27;15.00;99.90
24436;DHT22;12616;52.470;13.436;2022-10-16T00:29:54;15.00;99.90
24436;DHT22;12616;52.470;13.436;2022-10-16T00:32:20;15.00;99.90
24436;DHT22;12616;52.470;13.436;2022-10-16T00:34:48;15.00;99.90
24436;DHT22;12616;52.470;13.436;2022-10-16T00:37:15;15.00;99.90
24436;DHT22;12616;52.470;13.436;2022-10-16T00:39:42;15.00;99.90
24436;DHT22;12616;52.470;13.436;2022-10-16T00:42:11;15.00;99.90
24436;DHT22;12616;52.470;13.436;2022-10-16T00:44:44;15.00;99.90
24436;DHT22;12616;52.470;13.436;2022-10-16T00:47:14;15.10;99.90
24436;DHT22;12616;52.470;13.436;2022-10-16T00:49:42;15.10;99.90
24436;DHT22;12616;52.470;13.436;2022-10-16T00:52:10;15.10;99.90
24436;DHT22;12616;52.470;13.436;2022-10-16T00:54:37;15.10;99.90
24436;DHT22;12616;52.470;13.436;2022-10-16T00:57:05;15.10;99.90
24436;DHT22;12616;52.470;13.436;2022-10-16T00:59:34;15.10;99.90
24436;DHT22;12616;52.470;13.436;2022-10-16T01:02:02;15.10;99.90
24436;DHT22;12616;52.470;13.436;2022-10-16T01:04:33;15.00;99.90
24436;DHT22;12616;52.470;13.436;2022-10-16T01:07:07;15.10;99.90
24436;DHT22;12616;52.470;13.436;2022-10-16T01:09:42;15.10;99.90
24436;DHT22;12616;52.470;13.436;2022-10-16T01:12:15;15.10;99.90
24436;DHT22;12616;52.470;13.436;2022-10-16T01:14:48;15.10;99.90
24436;DHT22;12616;52.470;13.436;2022-10-16T01:17:21;15.00;99.90
24436;DHT22;12616;52.470;13.436;2022-10-16T01:20:03;15.10;99.90
24436;DHT22;12616;52.470;13.436;2022-10-16T01:22:40;15.00;99.90
24436;DHT22;12616;52.470;13.436;2022-10-16T01:25:16;15.00;99.90
24436;DHT22;12616;52.470;13.436;2022-10-16T01:27:47;15.00;99.90
24436;DHT22;12616;52.470;13.436;2022-10-16T01:30:18;14.90;99.90
24436;DHT22;12616;52.470;13.436;2022-10-16T01:32:50;15.00;99.90
24436;DHT22;12616;52.470;13.436;2022-10-16T01:35:22;14.90;99.90
24436;DHT22;12616;52.470;13.436;2022-10-16T01:37:54;15.00;99.90
24436;DHT22;12616;52.470;13.436;2022-10-16T01:40:25;14.90;99.90
24436;DHT22;12616;52.470;13.436;2022-10-16T01:42:59;14.90;99.90
24436;DHT22;12616;52.470;13.436;2022-10-16T01:45:28;14.90;99.90
24436;DHT22;12616;52.470;13.436;2022-10-16T01:47:56;14.90;99.90
24436;DHT22;12616;52.470;13.436;2022-10-16T01:50:24;14.90;99.90
24436;DHT22;12616;52.470;13.436;2022-10-16T01:52:53;15.00;99.90
24436;DHT22;12616;52.470;13.436;2022-10-16T01:55:27;14.80;99.90
24436;DHT22;12616;52.470;13.436;2022-10-16T01:57:58;14.80;99.90
24436;DHT22;12616;52.470;13.436;2022-10-16T02:00:26;14.80;99.90
24436;DHT22;12616;52.470;13.436;2022-10-16T02:02:53;14.90;99.90
24436;DHT22;12616;52.470;13.436;2022-10-16T02:05:24;14.80;99.90
24436;DHT22;12616;52.470;13.436;2022-10-16T02:07:52;14.80;99.90
24436;DHT22;12616;52.470;13.436;2022-10-16T02:10:19;14.90;99.90
24436;DHT22;12616;52.470;13.436;2022-10-16T02:12:50;14.90;99.90
24436;DHT22;12616;52.470;13.436;2022-10-16T02:15:20;14.90;99.90
24436;DHT22;12616;52.470;13.436;2022-10-16T02:17:47;14.80;99.90
24436;DHT22;12616;52.470;13.436;2022-10-16T02:20:14;14.90;99.90
24436;DHT22;12616;52.470;13.436;2022-10-16T02:22:42;15.00;99.90
24436;DHT22;12616;52.470;13.436;2022-10-16T02:25:13;15.00;99.90
24436;DHT22;12616;52.470;13.436;2022-10-16T02:27:46;14.70;99.90
24436;DHT22;12616;52.470;13.436;2022-10-16T02:30:21;15.00;99.90
24436;DHT22;12616;52.470;13.436;2022-10-16T02:32:52;15.00;99.90
24436;DHT22;12616;52.470;13.436;2022-10-16T02:35:21;15.00;99.90
24436;DHT22;12616;52.470;13.436;2022-10-16T02:37:49;15.10;99.90
24436;DHT22;12616;52.470;13.436;2022-10-16T02:40:17;15.00;99.90
24436;DHT22;12616;52.470;13.436;2022-10-16T02:42:49;15.00;99.90
24436;DHT22;12616;52.470;13.436;2022-10-16T02:45:16;15.00;99.90
24436;DHT22;12616;52.470;13.436;2022-10-16T02:47:45;14.90;99.90
24436;DHT22;12616;52.470;13.436;2022-10-16T02:50:12;15.00;99.90
24436;DHT22;12616;52.470;13.436;2022-10-16T02:52:38;15.00;99.90
24436;DHT22;12616;52.470;13.436;2022-10-16T02:55:06;15.00;99.90
24436;DHT22;12616;52.470;13.436;2022-10-16T02:57:32;15.00;99.90
24436;DHT22;12616;52.470;13.436;2022-10-16T02:59:59;15.10;99.90
24436;DHT22;12616;52.470;13.436;2022-10-16T03:02:26;15.00;99.90
24436;DHT22;12616;52.470;13.436;2022-10-16T03:04:54;15.00;99.90
24436;DHT22;12616;52.470;13.436;2022-10-16T03:07:21;15.00;99.90
24436;DHT22;12616;52.470;13.436;2022-10-16T03:09:47;15.00;99.90
24436;DHT22;12616;52.470;13.436;2022-10-16T03:12:14;15.00;99.90
24436;DHT22;12616;52.470;13.436;2022-10-16T03:14:40;15.00;99.90
24436;DHT22;12616;52.470;13.436;2022-10-16T03:17:07;15.00;99.90
24436;DHT22;12616;52.470;13.436;2022-10-16T03:19:34;15.00;99.90
24436;DHT22;12616;52.470;13.436;2022-10-16T03:22:02;14.80;99.90
24436;DHT22;12616;52.470;13.436;2022-10-16T03:24:29;14.90;99.90
24436;DHT22;12616;52.470;13.436;2022-10-16T03:26:55;14.90;99.90
24436;DHT22;12616;52.470;13.436;2022-10-16T03:29:22;14.90;99.90
24436;DHT22;12616;52.470;13.436;2022-10-16T03:31:51;14.80;99.90
24436;DHT22;12616;52.470;13.436;2022-10-16T03:34:17;14.80;99.90
24436;DHT22;12616;52.470;13.436;2022-10-16T03:39:12;14.80;99.90
24436;DHT22;12616;52.470;13.436;2022-10-16T03:41:39;14.80;99.90
24436;DHT22;12616;52.470;13.436;2022-10-16T03:44:06;14.80;99.90
24436;DHT22;12616;52.470;13.436;2022-10-16T03:46:33;14.80;99.90
24436;DHT22;12616;52.470;13.436;2022-10-16T03:48:59;14.80;99.90
24436;DHT22;12616;52.470;13.436;2022-10-16T03:51:26;14.70;99.90
24436;DHT22;12616;52.470;13.436;2022-10-16T03:53:53;14.70;99.90
24436;DHT22;12616;52.470;13.436;2022-10-16T03:56:21;14.70;99.90
24436;DHT22;12616;52.470;13.436;2022-10-16T03:58:47;14.70;99.90
24436;DHT22;12616;52.470;13.436;2022-10-16T04:01:14;14.70;99.90
24436;DHT22;12616;52.470;13.436;2022-10-16T04:03:41;14.70;99.90
24436;DHT22;12616;52.470;13.436;2022-10-16T04:06:07;14.70;99.90
24436;DHT22;12616;52.470;13.436;2022-10-16T04:08:34;14.60;99.90
24436;DHT22;12616;52.470;13.436;2022-10-16T04:11:02;14.60;99.90
24436;DHT22;12616;52.470;13.436;2022-10-16T04:13:30;14.60;99.90
24436;DHT22;12616;52.470;13.436;2022-10-16T04:15:57;14.60;99.90
24436;DHT22;12616;52.470;13.436;2022-10-16T04:18:23;14.60;99.90
24436;DHT22;12616;52.470;13.436;2022-10-16T04:20:52;14.60;99.90
24436;DHT22;12616;52.470;13.436;2022-10-16T04:23:19;14.60;99.90
24436;DHT22;12616;52.470;13.436;2022-10-16T04:25:45;14.60;99.90
24436;DHT22;12616;52.470;13.436;2022-10-16T04:28:12;14.40;99.90
24436;DHT22;12616;52.470;13.436;2022-10-16T04:30:40;14.60;99.90
24436;DHT22;12616;52.470;13.436;2022-10-16T04:33:08;14.70;99.90
24436;DHT22;12616;52.470;13.436;2022-10-16T04:35:35;14.50;99.90
24436;DHT22;12616;52.470;13.436;2022-10-16T04:38:01;14.50;99.90
24436;DHT22;12616;52.470;13.436;2022-10-16T04:40:28;14.50;99.90
24436;DHT22;12616;52.470;13.436;2022-10-16T04:42:58;14.40;99.90
24436;DHT22;12616;52.470;13.436;2022-10-16T04:45:25;14.40;99.90
24436;DHT22;12616;52.470;13.436;2022-10-16T04:47:52;14.40;99.90
24436;DHT22;12616;52.470;13.436;2022-10-16T04:50:22;14.30;99.90
24436;DHT22;12616;52.470;13.436;2022-10-16T04:52:49;14.30;99.90
24436;DHT22;12616;52.470;13.436;2022-10-16T04:55:16;14.30;99.90
24436;DHT22;12616;52.470;13.436;2022-10-16T04:57:42;14.20;99.90
24436;DHT22;12616;52.470;13.436;2022-10-16T05:00:10;14.20;99.90
24436;DHT22;12616;52.470;13.436;2022-10-16T05:02:36;14.30;99.90
24436;DHT22;12616;52.470;13.436;2022-10-16T05:05:05;14.20;99.90
24436;DHT22;12616;52.470;13.436;2022-10-16T05:07:32;14.20;99.90
24436;DHT22;12616;52.470;13.436;2022-10-16T05:09:59;14.20;99.90
24436;DHT22;12616;52.470;13.436;2022-10-16T05:12:25;14.20;99.90
24436;DHT22;12616;52.470;13.436;2022-10-16T05:14:52;14.20;99.90
24436;DHT22;12616;52.470;13.436;2022-10-16T05:17:23;14.10;99.90
24436;DHT22;12616;52.470;13.436;2022-10-16T05:19:50;14.10;99.90
24436;DHT22;12616;52.470;13.436;2022-10-16T05:22:18;14.10;99.90
24436;DHT22;12616;52.470;13.436;2022-10-16T05:24:45;14.10;99.90
24436;DHT22;12616;52.470;13.436;2022-10-16T05:27:11;14.10;99.90
24436;DHT22;12616;52.470;13.436;2022-10-16T05:29:44;14.10;99.90
24436;DHT22;12616;52.470;13.436;2022-10-16T05:32:11;14.10;99.90
24436;DHT22;12616;52.470;13.436;2022-10-16T05:34:37;14.10;99.90
24436;DHT22;12616;52.470;13.436;2022-10-16T05:37:04;14.00;99.90
24436;DHT22;12616;52.470;13.436;2022-10-16T05:39:32;14.00;99.90
24436;DHT22;12616;52.470;13.436;2022-10-16T05:41:59;14.00;99.90
24436;DHT22;12616;52.470;13.436;2022-10-16T05:44:25;14.00;99.90
24436;DHT22;12616;52.470;13.436;2022-10-16T05:46:52;14.00;99.90
24436;DHT22;12616;52.470;13.436;2022-10-16T05:49:19;14.00;99.90
24436;DHT22;12616;52.470;13.436;2022-10-16T05:51:45;14.00;99.90
24436;DHT22;12616;52.470;13.436;2022-10-16T05:54:12;14.00;99.90
24436;DHT22;12616;52.470;13.436;2022-10-16T05:56:40;14.10;99.90
24436;DHT22;12616;52.470;13.436;2022-10-16T05:59:07;14.10;99.90
24436;DHT22;12616;52.470;13.436;2022-10-16T06:01:34;14.10;99.90
24436;DHT22;12616;52.470;13.436;2022-10-16T06:04:01;14.10;99.90
24436;DHT22;12616;52.470;13.436;2022-10-16T06:06:28;14.10;99.90
24436;DHT22;12616;52.470;13.436;2022-10-16T06:08:56;14.10;99.90
24436;DHT22;12616;52.470;13.436;2022-10-16T06:11:26;14.10;99.90
24436;DHT22;12616;52.470;13.436;2022-10-16T06:13:56;14.10;99.90
24436;DHT22;12616;52.470;13.436;2022-10-16T06:16:24;14.20;99.90
24436;DHT22;12616;52.470;13.436;2022-10-16T06:18:52;14.10;99.90
24436;DHT22;12616;52.470;13.436;2022-10-16T06:21:21;14.10;99.90
24436;DHT22;12616;52.470;13.436;2022-10-16T06:23:48;14.20;99.90
24436;DHT22;12616;52.470;13.436;2022-10-16T06:26:16;14.30;99.90
24436;DHT22;12616;52.470;13.436;2022-10-16T06:28:43;14.30;99.90
24436;DHT22;12616;52.470;13.436;2022-10-16T06:31:13;14.30;99.90
24436;DHT22;12616;52.470;13.436;2022-10-16T06:33:40;14.40;99.90
24436;DHT22;12616;52.470;13.436;2022-10-16T06:36:09;14.40;99.90
24436;DHT22;12616;52.470;13.436;2022-10-16T06:38:37;14.50;99.90
24436;DHT22;12616;52.470;13.436;2022-10-16T06:41:04;14.50;99.90
24436;DHT22;12616;52.470;13.436;2022-10-16T06:43:32;14.60;99.90
24436;DHT22;12616;52.470;13.436;2022-10-16T06:46:01;13.70;99.90
24436;DHT22;12616;52.470;13.436;2022-10-16T06:48:29;14.60;99.90
24436;DHT22;12616;52.470;13.436;2022-10-16T06:50:57;14.60;99.90
24436;DHT22;12616;52.470;13.436;2022-10-16T06:53:24;14.70;99.90
24436;DHT22;12616;52.470;13.436;2022-10-16T06:55:51;14.70;99.90
24436;DHT22;12616;52.470;13.436;2022-10-16T06:58:18;14.90;99.90
24436;DHT22;12616;52.470;13.436;2022-10-16T07:00:45;14.70;99.90
24436;DHT22;12616;52.470;13.436;2022-10-16T07:03:12;14.80;99.90
24436;DHT22;12616;52.470;13.436;2022-10-16T07:05:41;14.80;99.90
24436;DHT22;12616;52.470;13.436;2022-10-16T07:08:08;14.60;99.90
24436;DHT22;12616;52.470;13.436;2022-10-16T07:10:35;14.80;99.90
24436;DHT22;12616;52.470;13.436;2022-10-16T07:13:02;15.00;99.90
24436;DHT22;12616;52.470;13.436;2022-10-16T07:15:29;15.10;99.90
24436;DHT22;12616;52.470;13.436;2022-10-16T07:17:55;15.20;99.90
24436;DHT22;12616;52.470;13.436;2022-10-16T07:20:22;15.30;99.90
24436;DHT22;12616;52.470;13.436;2022-10-16T07:22:50;15.50;99.90
24436;DHT22;12616;52.470;13.436;2022-10-16T07:25:17;15.50;99.90
24436;DHT22;12616;52.470;13.436;2022-10-16T07:27:44;15.60;99.90
24436;DHT22;12616;52.470;13.436;2022-10-16T07:30:11;15.60;99.90
24436;DHT22;12616;52.470;13.436;2022-10-16T07:35:05;15.80;99.90
24436;DHT22;12616;52.470;13.436;2022-10-16T07:37:32;15.90;99.90
24436;DHT22;12616;52.470;13.436;2022-10-16T07:40:00;15.90;99.90
24436;DHT22;12616;52.470;13.436;2022-10-16T07:42:27;16.00;99.90
24436;DHT22;12616;52.470;13.436;2022-10-16T07:44:54;16.00;99.90
24436;DHT22;12616;52.470;13.436;2022-10-16T07:47:20;16.10;99.90
24436;DHT22;12616;52.470;13.436;2022-10-16T07:54:41;16.20;99.90
24436;DHT22;12616;52.470;13.436;2022-10-16T07:57:09;16.20;99.90
24436;DHT22;12616;52.470;13.436;2022-10-16T07:59:36;16.30;99.90
24436;DHT22;12616;52.470;13.436;2022-10-16T08:02:02;16.30;99.90
24436;DHT22;12616;52.470;13.436;2022-10-16T08:04:29;16.20;99.90
24436;DHT22;12616;52.470;13.436;2022-10-16T08:06:56;16.30;99.90
24436;DHT22;12616;52.470;13.436;2022-10-16T08:09:22;16.30;99.90
24436;DHT22;12616;52.470;13.436;2022-10-16T08:11:49;16.30;99.90
24436;DHT22;12616;52.470;13.436;2022-10-16T08:14:19;16.40;99.90
24436;DHT22;12616;52.470;13.436;2022-10-16T08:16:45;16.50;99.90
24436;DHT22;12616;52.470;13.436;2022-10-16T08:19:12;16.50;99.90
24436;DHT22;12616;52.470;13.436;2022-10-16T08:21:41;16.50;99.90
24436;DHT22;12616;52.470;13.436;2022-10-16T08:24:08;16.50;99.90
24436;DHT22;12616;52.470;13.436;2022-10-16T08:29:02;16.60;99.90
24436;DHT22;12616;52.470;13.436;2022-10-16T08:31:29;16.70;99.90
24436;DHT22;12616;52.470;13.436;2022-10-16T08:33:56;16.70;99.90
24436;DHT22;12616;52.470;13.436;2022-10-16T08:36:23;16.80;99.90
24436;DHT22;12616;52.470;13.436;2022-10-16T08:38:50;16.80;99.90
24436;DHT22;12616;52.470;13.436;2022-10-16T08:44:31;16.90;99.90
24436;DHT22;12616;52.470;13.436;2022-10-16T08:47:12;16.90;99.90
24436;DHT22;12616;52.470;13.436;2022-10-16T08:49:42;16.90;99.90
24436;DHT22;12616;52.470;13.436;2022-10-16T08:52:11;16.90;99.90
24436;DHT22;12616;52.470;13.436;2022-10-16T08:54:42;16.90;99.90
24436;DHT22;12616;52.470;13.436;2022-10-16T08:57:13;17.00;99.90
24436;DHT22;12616;52.470;13.436;2022-10-16T08:59:40;16.90;99.90
24436;DHT22;12616;52.470;13.436;2022-10-16T09:02:24;17.00;99.90
24436;DHT22;12616;52.470;13.436;2022-10-16T09:05:10;16.90;99.90
24436;DHT22;12616;52.470;13.436;2022-10-16T09:07:47;16.90;99.90
24436;DHT22;12616;52.470;13.436;2022-10-16T09:10:25;16.80;99.90
24436;DHT22;12616;52.470;13.436;2022-10-16T09:12:58;16.90;99.90
24436;DHT22;12616;52.470;13.436;2022-10-16T09:15:34;17.00;99.90
24436;DHT22;12616;52.470;13.436;2022-10-16T09:18:09;18.30;99.90
24436;DHT22;12616;52.470;13.436;2022-10-16T09:20:44;17.20;99.90
24436;DHT22;12616;52.470;13.436;2022-10-16T09:23:17;17.40;99.90
24436;DHT22;12616;52.470;13.436;2022-10-16T09:25:47;18.00;99.90
24436;DHT22;12616;52.470;13.436;2022-10-16T09:28:15;17.80;99.90
24436;DHT22;12616;52.470;13.436;2022-10-16T09:30:42;17.50;99.90
24436;DHT22;12616;52.470;13.436;2022-10-16T09:33:12;17.60;99.90
24436;DHT22;12616;52.470;13.436;2022-10-16T09:35:40;17.60;99.90
24436;DHT22;12616;52.470;13.436;2022-10-16T09:38:08;17.70;99.90
24436;DHT22;12616;52.470;13.436;2022-10-16T09:40:37;17.50;99.90
24436;DHT22;12616;52.470;13.436;2022-10-16T09:43:19;17.40;99.90
24436;DHT22;12616;52.470;13.436;2022-10-16T09:45:54;17.50;99.90
24436;DHT22;12616;52.470;13.436;2022-10-16T09:48:25;17.60;99.90
24436;DHT22;12616;52.470;13.436;2022-10-16T09:50:57;17.70;99.90
24436;DHT22;12616;52.470;13.436;2022-10-16T09:53:24;17.90;99.90
24436;DHT22;12616;52.470;13.436;2022-10-16T09:55:53;17.90;99.90
24436;DHT22;12616;52.470;13.436;2022-10-16T09:58:22;18.20;99.90
24436;DHT22;12616;52.470;13.436;2022-10-16T10:00:50;17.90;99.90
24436;DHT22;12616;52.470;13.436;2022-10-16T10:03:34;17.80;99.90
24436;DHT22;12616;52.470;13.436;2022-10-16T10:06:06;17.70;99.90
24436;DHT22;12616;52.470;13.436;2022-10-16T10:08:33;17.70;99.90
24436;DHT22;12616;52.470;13.436;2022-10-16T10:11:00;17.70;99.90
24436;DHT22;12616;52.470;13.436;2022-10-16T10:13:26;17.70;99.90
24436;DHT22;12616;52.470;13.436;2022-10-16T10:15:54;17.80;99.90
24436;DHT22;12616;52.470;13.436;2022-10-16T10:18:22;18.00;99.90
24436;DHT22;12616;52.470;13.436;2022-10-16T10:20:58;18.00;99.90
24436;DHT22;12616;52.470;13.436;2022-10-16T10:23:27;18.10;99.90
24436;DHT22;12616;52.470;13.436;2022-10-16T10:25:57;18.10;99.90
24436;DHT22;12616;52.470;13.436;2022-10-16T10:28:42;18.10;99.90
24436;DHT22;12616;52.470;13.436;2022-10-16T10:31:17;18.30;99.90
24436;DHT22;12616;52.470;13.436;2022-10-16T10:33:52;18.20;99.90
24436;DHT22;12616;52.470;13.436;2022-10-16T10:36:29;18.30;99.90
24436;DHT22;12616;52.470;13.436;2022-10-16T10:38:58;18.40;99.90
24436;DHT22;12616;52.470;13.436;2022-10-16T10:41:56;18.40;99.90
24436;DHT22;12616;52.470;13.436;2022-10-16T10:44:37;18.40;99.90
24436;DHT22;12616;52.470;13.436;2022-10-16T10:47:14;18.50;99.90
24436;DHT22;12616;52.470;13.436;2022-10-16T10:49:51;18.50;99.90
24436;DHT22;12616;52.470;13.436;2022-10-16T10:52:40;18.60;99.90
24436;DHT22;12616;52.470;13.436;2022-10-16T10:55:19;18.50;99.90
24436;DHT22;12616;52.470;13.436;2022-10-16T11:00:48;18.70;99.90
24436;DHT22;12616;52.470;13.436;2022-10-16T11:03:27;18.60;99.90
24436;DHT22;12616;52.470;13.436;2022-10-16T11:05:59;18.70;99.90
24436;DHT22;12616;52.470;13.436;2022-10-16T11:08:32;18.70;99.90
24436;DHT22;12616;52.470;13.436;2022-10-16T11:11:03;18.80;99.90
24436;DHT22;12616;52.470;13.436;2022-10-16T11:13:33;18.90;99.90
24436;DHT22;12616;52.470;13.436;2022-10-16T11:16:09;19.00;99.90
24436;DHT22;12616;52.470;13.436;2022-10-16T11:18:46;19.30;99.90
24436;DHT22;12616;52.470;13.436;2022-10-16T11:21:18;19.30;99.90
24436;DHT22;12616;52.470;13.436;2022-10-16T11:23:53;19.50;99.90
24436;DHT22;12616;52.470;13.436;2022-10-16T11:26:23;19.50;99.90
24436;DHT22;12616;52.470;13.436;2022-10-16T11:28:52;19.50;1.00
24436;DHT22;12616;52.470;13.436;2022-10-16T11:31:27;19.40;91.90
24436;DHT22;12616;52.470;13.436;2022-10-16T11:34:02;19.20;1.00
24436;DHT22;12616;52.470;13.436;2022-10-16T11:36:35;19.30;1.00
24436;DHT22;12616;52.470;13.436;2022-10-16T11:39:11;19.10;99.90
24436;DHT22;12616;52.470;13.436;2022-10-16T11:41:45;19.00;99.90
24436;DHT22;12616;52.470;13.436;2022-10-16T11:44:20;18.90;99.90
24436;DHT22;12616;52.470;13.436;2022-10-16T11:46:53;18.90;99.90
24436;DHT22;12616;52.470;13.436;2022-10-16T11:49:26;18.90;1.00
24436;DHT22;12616;52.470;13.436;2022-10-16T11:51:59;18.90;1.00
24436;DHT22;12616;52.470;13.436;2022-10-16T11:54:34;19.00;99.90
24436;DHT22;12616;52.470;13.436;2022-10-16T11:57:09;19.00;99.90
24436;DHT22;12616;52.470;13.436;2022-10-16T11:59:43;19.10;1.00
24436;DHT22;12616;52.470;13.436;2022-10-16T12:02:28;18.90;1.00
24436;DHT22;12616;52.470;13.436;2022-10-16T12:05:06;18.90;1.00
24436;DHT22;12616;52.470;13.436;2022-10-16T12:07:39;18.90;99.90
24436;DHT22;12616;52.470;13.436;2022-10-16T12:10:20;18.90;99.90
24436;DHT22;12616;52.470;13.436;2022-10-16T12:12:47;18.90;99.90
24436;DHT22;12616;52.470;13.436;2022-10-16T12:15:21;18.90;1.00
24436;DHT22;12616;52.470;13.436;2022-10-16T12:17:48;18.90;1.00
24436;DHT22;12616;52.470;13.436;2022-10-16T12:20:21;18.90;99.90
24436;DHT22;12616;52.470;13.436;2022-10-16T12:22:51;19.00;99.90
24436;DHT22;12616;52.470;13.436;2022-10-16T12:25:24;18.90;1.00
24436;DHT22;12616;52.470;13.436;2022-10-16T12:27:55;19.00;99.90
24436;DHT22;12616;52.470;13.436;2022-10-16T12:30:24;19.00;1.00
24436;DHT22;12616;52.470;13.436;2022-10-16T12:32:56;19.10;99.90
24436;DHT22;12616;52.470;13.436;2022-10-16T12:35:27;19.10;1.00
24436;DHT22;12616;52.470;13.436;2022-10-16T12:38:03;19.20;6.00
24436;DHT22;12616;52.470;13.436;2022-10-16T12:40:33;19.30;1.00
24436;DHT22;12616;52.470;13.436;2022-10-16T12:43:12;19.30;99.90
24436;DHT22;12616;52.470;13.436;2022-10-16T12:45:39;19.20;99.90
24436;DHT22;12616;52.470;13.436;2022-10-16T12:48:20;19.10;1.00
24436;DHT22;12616;52.470;13.436;2022-10-16T12:50:47;19.30;99.90
24436;DHT22;12616;52.470;13.436;2022-10-16T12:53:19;19.30;1.00
24436;DHT22;12616;52.470;13.436;2022-10-16T12:55:55;19.30;1.00
24436;DHT22;12616;52.470;13.436;2022-10-16T12:58:43;19.30;99.90
24436;DHT22;12616;52.470;13.436;2022-10-16T13:01:28;19.30;1.00
24436;DHT22;12616;52.470;13.436;2022-10-16T13:04:21;19.40;1.00
24436;DHT22;12616;52.470;13.436;2022-10-16T13:06:54;19.40;1.00
24436;DHT22;12616;52.470;13.436;2022-10-16T13:09:33;19.50;99.90
24436;DHT22;12616;52.470;13.436;2022-10-16T13:12:19;19.50;99.90
24436;DHT22;12616;52.470;13.436;2022-10-16T13:15:11;19.60;99.90
24436;DHT22;12616;52.470;13.436;2022-10-16T13:17:49;19.60;99.90
24436;DHT22;12616;52.470;13.436;2022-10-16T13:20:23;19.60;99.90
24436;DHT22;12616;52.470;13.436;2022-10-16T13:23:01;19.60;99.90
24436;DHT22;12616;52.470;13.436;2022-10-16T13:25:39;19.50;1.00
24436;DHT22;12616;52.470;13.436;2022-10-16T13:28:10;19.20;1.00
24436;DHT22;12616;52.470;13.436;2022-10-16T13:30:40;19.50;99.90
24436;DHT22;12616;52.470;13.436;2022-10-16T13:33:14;19.00;1.00
24436;DHT22;12616;52.470;13.436;2022-10-16T13:35:48;19.50;99.90
24436;DHT22;12616;52.470;13.436;2022-10-16T13:38:17;19.30;1.00
24436;DHT22;12616;52.470;13.436;2022-10-16T13:40:53;19.70;99.90
24436;DHT22;12616;52.470;13.436;2022-10-16T13:43:23;19.40;99.90
24436;DHT22;12616;52.470;13.436;2022-10-16T13:45:56;19.40;99.90
24436;DHT22;12616;52.470;13.436;2022-10-16T13:48:23;19.40;99.90
24436;DHT22;12616;52.470;13.436;2022-10-16T13:51:00;19.30;99.90
24436;DHT22;12616;52.470;13.436;2022-10-16T13:53:27;19.20;1.00
24436;DHT22;12616;52.470;13.436;2022-10-16T13:55:56;19.20;99.90
24436;DHT22;12616;52.470;13.436;2022-10-16T13:58:24;19.10;1.00
24436;DHT22;12616;52.470;13.436;2022-10-16T14:00:56;19.00;1.00
24436;DHT22;12616;52.470;13.436;2022-10-16T14:03:24;19.00;99.90
24436;DHT22;12616;52.470;13.436;2022-10-16T14:05:53;19.10;1.00
24436;DHT22;12616;52.470;13.436;2022-10-16T14:08:20;18.90;99.90
24436;DHT22;12616;52.470;13.436;2022-10-16T14:10:48;19.10;1.00
24436;DHT22;12616;52.470;13.436;2022-10-16T14:13:18;19.10;1.00
24436;DHT22;12616;52.470;13.436;2022-10-16T14:15:49;19.10;1.00
24436;DHT22;12616;52.470;13.436;2022-10-16T14:18:21;18.80;99.90
24436;DHT22;12616;52.470;13.436;2022-10-16T14:20:49;19.20;1.00
24436;DHT22;12616;52.470;13.436;2022-10-16T14:23:22;19.10;99.90
24436;DHT22;12616;52.470;13.436;2022-10-16T14:25:49;19.10;1.00
24436;DHT22;12616;52.470;13.436;2022-10-16T14:28:17;18.80;21.40
24436;DHT22;12616;52.470;13.436;2022-10-16T14:30:53;19.10;1.00
24436;DHT22;12616;52.470;13.436;2022-10-16T14:33:24;19.10;1.00
24436;DHT22;12616;52.470;13.436;2022-10-16T14:36:05;19.10;99.90
24436;DHT22;12616;52.470;13.436;2022-10-16T14:38:38;19.00;61.40
24436;DHT22;12616;52.470;13.436;2022-10-16T14:41:06;19.10;99.90
24436;DHT22;12616;52.470;13.436;2022-10-16T14:43:34;19.00;99.90
24436;DHT22;12616;52.470;13.436;2022-10-16T14:46:06;19.00;1.00
24436;DHT22;12616;52.470;13.436;2022-10-16T14:48:33;18.70;1.00
24436;DHT22;12616;52.470;13.436;2022-10-16T14:53:27;19.10;99.90
24436;DHT22;12616;52.470;13.436;2022-10-16T14:55:54;19.10;99.90
24436;DHT22;12616;52.470;13.436;2022-10-16T14:58:22;18.70;1.00
24436;DHT22;12616;52.470;13.436;2022-10-16T15:00:50;19.00;99.90
24436;DHT22;12616;52.470;13.436;2022-10-16T15:03:18;19.00;99.90
24436;DHT22;12616;52.470;13.436;2022-10-16T15:05:44;19.00;99.90
24436;DHT22;12616;52.470;13.436;2022-10-16T15:08:11;19.00;1.00
24436;DHT22;12616;52.470;13.436;2022-10-16T15:10:40;19.10;99.90
24436;DHT22;12616;52.470;13.436;2022-10-16T15:13:11;19.00;99.90
24436;DHT22;12616;52.470;13.436;2022-10-16T15:15:40;18.90;99.90
24436;DHT22;12616;52.470;13.436;2022-10-16T15:18:08;18.70;1.00
24436;DHT22;12616;52.470;13.436;2022-10-16T15:20:37;18.30;99.90
24436;DHT22;12616;52.470;13.436;2022-10-16T15:23:06;18.70;1.00
24436;DHT22;12616;52.470;13.436;2022-10-16T15:25:35;18.70;1.00
24436;DHT22;12616;52.470;13.436;2022-10-16T15:28:04;18.40;99.90
24436;DHT22;12616;52.470;13.436;2022-10-16T15:30:31;18.50;99.90
24436;DHT22;12616;52.470;13.436;2022-10-16T15:32:58;18.40;99.90
24436;DHT22;12616;52.470;13.436;2022-10-16T15:35:25;18.50;99.90
24436;DHT22;12616;52.470;13.436;2022-10-16T15:37:53;18.50;99.90
24436;DHT22;12616;52.470;13.436;2022-10-16T15:40:20;18.40;99.90
24436;DHT22;12616;52.470;13.436;2022-10-16T15:45:15;18.30;99.90
24436;DHT22;12616;52.470;13.436;2022-10-16T15:47:42;18.30;1.00
24436;DHT22;12616;52.470;13.436;2022-10-16T15:50:10;18.20;99.90
24436;DHT22;12616;52.470;13.436;2022-10-16T15:52:38;18.10;99.90
24436;DHT22;12616;52.470;13.436;2022-10-16T15:55:08;18.10;1.00
24436;DHT22;12616;52.470;13.436;2022-10-16T15:57:35;18.00;99.90